M/T Filos — 9HQB8 — position and weather

sailwx.info

Track history (hours):
 
Tides and Currents Weather Stations Pressure Air Temp Water Temp Dewpoint Dewpoint Depression Visibility Wind Speed Wind Dir Waves Ship Positions

M/T Filos

Last reported at 2016-Feb-10 21:32 UTC. Time now 2016-Feb-10 22:11 UTC.
Position N 51°33' E 001°28'.

Length 180 m; draft 7.4 m.

Type: Tanker. MMSI: 224561000.

Date/timePositionNaut miles runAvg speedWind from/ knotsBaromVisibWave heightAir tempDewpointWater temp
2016-Feb-10 21:32N 51°33' E 001°28'0 0.0
2016-Feb-10 20:32N 51°33' E 001°28'0 0.1
2016-Feb-10 19:32N 51°33' E 001°29'0 0.1
2016-Feb-10 18:32N 51°33' E 001°29'0 0.0
2016-Feb-10 17:32N 51°33' E 001°29'0 0.0
2016-Feb-10 16:32N 51°33' E 001°29'0 0.0
2016-Feb-10 15:32N 51°33' E 001°29'0 0.0
2016-Feb-10 14:32N 51°33' E 001°29'0 0.1
2016-Feb-10 13:32N 51°33' E 001°28'6 5.9
2016-Feb-10 12:34N 51°27' E 001°30'5 5.3
2016-Feb-10 11:33N 51°32' E 001°29'0 0.5
2016-Feb-10 10:33N 51°33' E 001°29'0 0.0
2016-Feb-10 09:33N 51°33' E 001°29'0 0.1
2016-Feb-10 08:33N 51°33' E 001°30'0 0.1
2016-Feb-10 07:33N 51°33' E 001°30'0 0.0
2016-Feb-10 06:33N 51°33' E 001°30'0 0.0
2016-Feb-10 05:33N 51°33' E 001°30'0 0.0
2016-Feb-10 04:33N 51°33' E 001°30'0 0.0
2016-Feb-10 03:30N 51°33' E 001°30'0 0.0
2016-Feb-10 02:33N 51°33' E 001°30'0 0.0
2016-Feb-10 01:30N 51°33' E 001°30'0 0.1
2016-Feb-10 00:33N 51°33' E 001°29'0 0.1
2016-Feb-09 23:33N 51°33' E 001°29'0 0.0
2016-Feb-09 22:33N 51°33' E 001°29'0 0.0
2016-Feb-09 21:33N 51°33' E 001°29'0 0.0
2016-Feb-09 20:33N 51°33' E 001°29'0 0.2
2016-Feb-09 19:33N 51°33' E 001°30'0 0.1
2016-Feb-09 18:33N 51°33' E 001°30'2 1.8
2016-Feb-09 17:33N 51°32' E 001°32'8 8.4
2016-Feb-09 16:33N 51°33' E 001°45'8 8.4
2016-Feb-09 15:33N 51°38' E 001°57'51 8.5
2016-Feb-09 09:32N 52°28' E 002°16'2110.9
2016-Feb-09 07:33N 52°49' E 002°07'1010.4
2016-Feb-09 06:33N 52°56' E 001°56'1110.5
2016-Feb-09 05:33N 53°00' E 001°40'9 9.3
2016-Feb-09 04:33N 53°06' E 001°27'8 8.4
2016-Feb-09 03:33N 53°12' E 001°18'13 6.6
2016-Feb-09 01:32N 53°23' E 001°06'6 5.9
2016-Feb-09 00:32N 53°28' E 000°60'39 6.6
2016-Feb-08 18:34N 54°00' E 000°22'9 9.1
2016-Feb-08 17:33N 54°07' E 000°12'10 9.8
2016-Feb-08 16:33N 54°15' E 000°01'1010.1
2016-Feb-08 15:33N 54°22' W 000°11'1010.2
2016-Feb-08 14:33N 54°29' W 000°23'10 9.9
2016-Feb-08 13:32N 54°34' W 000°38'1010.1
2016-Feb-08 12:33N 54°38' W 000°54'9 8.7
2016-Feb-08 11:33N 54°38' W 001°09'1 0.5
2016-Feb-08 08:24N 54°37' W 001°09'0 0.0
2016-Feb-08 03:09N 54°37' W 001°09'0 0.0
2016-Feb-08 02:24N 54°37' W 001°09'0 0.0
2016-Feb-08 01:30N 54°37' W 001°09'0 0.0
2016-Feb-08 00:27N 54°37' W 001°09'0 0.0
2016-Feb-07 21:33N 54°37' W 001°09'0 0.0
2016-Feb-07 20:32N 54°37' W 001°09'0 0.0
2016-Feb-07 19:33N 54°37' W 001°09'0 0.0
2016-Feb-07 18:33N 54°37' W 001°09'5 4.7
2016-Feb-07 17:33N 54°41' W 001°05'6 6.5
2016-Feb-07 16:34N 54°43' W 000°54'0 0.1
2016-Feb-07 15:31N 54°43' W 000°54'0 0.0
2016-Feb-07 14:25N 54°43' W 000°54'0 0.1
2016-Feb-07 13:31N 54°43' W 000°54'0 0.1
2016-Feb-07 12:31N 54°43' W 000°54'0 0.0
2016-Feb-07 11:31N 54°43' W 000°54'0 0.1
2016-Feb-07 10:31N 54°43' W 000°54'0 0.0
2016-Feb-07 09:31N 54°43' W 000°54'0 0.0
2016-Feb-07 08:31N 54°43' W 000°54'0 0.0
2016-Feb-07 07:31N 54°43' W 000°54'0 0.0
2016-Feb-07 06:31N 54°43' W 000°54'0 0.0
2016-Feb-07 05:31N 54°43' W 000°54'0 0.0
2016-Feb-07 04:31N 54°43' W 000°54'0 0.1
2016-Feb-07 03:28N 54°43' W 000°54'0 0.0
2016-Feb-07 02:31N 54°43' W 000°54'0 0.0
2016-Feb-07 01:31N 54°43' W 000°54'0 0.1
2016-Feb-07 00:31N 54°43' W 000°54'0 0.1
2016-Feb-06 23:31N 54°43' W 000°54'0 0.1
2016-Feb-06 22:31N 54°43' W 000°54'0 0.0
2016-Feb-06 21:31N 54°43' W 000°54'0 0.0
2016-Feb-06 20:31N 54°43' W 000°54'0 0.1
2016-Feb-06 19:31N 54°43' W 000°54'0 0.0
2016-Feb-06 18:31N 54°43' W 000°54'0 0.1
2016-Feb-06 17:31N 54°43' W 000°54'0 0.1
2016-Feb-06 16:31N 54°43' W 000°54'0 0.0
2016-Feb-06 15:31N 54°43' W 000°54'0 0.1
2016-Feb-06 14:31N 54°43' W 000°55'0 0.0
2016-Feb-06 13:31N 54°43' W 000°54'0 0.0
2016-Feb-06 12:31N 54°43' W 000°54'0 0.0
2016-Feb-06 11:31N 54°43' W 000°54'0 0.0
2016-Feb-06 10:31N 54°43' W 000°54'0 0.0
2016-Feb-06 09:31N 54°43' W 000°54'0 0.0
2016-Feb-06 08:31N 54°43' W 000°54'5 4.9
2016-Feb-06 07:33N 54°42' W 000°47'10 9.9
2016-Feb-06 06:33N 54°38' W 000°30'1111.0
2016-Feb-06 05:33N 54°31' W 000°17'1010.3
2016-Feb-06 04:33N 54°24' W 000°04'10 9.5
2016-Feb-06 03:33N 54°17' E 000°08'9 8.6
2016-Feb-06 02:33N 54°09' E 000°14'9 8.9
2016-Feb-06 01:33N 54°00' E 000°17'10 9.1
2016-Feb-06 00:30N 53°51' E 000°20'10 9.8
2016-Feb-05 23:31N 53°42' E 000°25'9 9.6
2016-Feb-05 22:33N 53°34' E 000°16'9 8.6
2016-Feb-05 21:33N 53°35' E 000°02'9 8.7
2016-Feb-05 20:33N 53°38' W 000°11'0 0.0
2016-Feb-05 19:31N 53°38' W 000°11'0 0.0
2016-Feb-05 18:31N 53°38' W 000°11'0 0.0
2016-Feb-05 17:31N 53°38' W 000°11'0 0.0
2016-Feb-05 16:25N 53°38' W 000°11'0 0.0
2016-Feb-05 15:28N 53°38' W 000°11'0 0.0
2016-Feb-05 14:28N 53°38' W 000°11'0 0.0
2016-Feb-05 13:28N 53°38' W 000°11'0 0.0
2016-Feb-05 12:31N 53°38' W 000°11'0 0.0
2016-Feb-05 11:31N 53°38' W 000°11'0 0.0
2016-Feb-05 10:31N 53°38' W 000°11'0 0.0
2016-Feb-05 09:28N 53°38' W 000°11'0 0.0
2016-Feb-05 07:31N 53°38' W 000°11'0 0.0
2016-Feb-05 06:31N 53°38' W 000°11'0 0.0
2016-Feb-05 05:28N 53°38' W 000°11'0 0.0
2016-Feb-05 04:28N 53°38' W 000°11'0 0.0
2016-Feb-05 03:31N 53°38' W 000°11'0 0.0
2016-Feb-05 02:31N 53°38' W 000°11'0 0.0
2016-Feb-05 01:31N 53°38' W 000°11'0 0.0
2016-Feb-05 00:31N 53°38' W 000°11'0 0.0
2016-Feb-04 23:31N 53°38' W 000°11'0 0.0
2016-Feb-04 22:31N 53°38' W 000°11'0 0.0
2016-Feb-04 21:33N 53°38' W 000°11'5 4.8
2016-Feb-04 20:33N 53°37' W 000°04'9 9.1
2016-Feb-04 19:34N 53°33' E 000°10'8 8.3
2016-Feb-04 18:33N 53°35' E 000°24'1 0.7
2016-Feb-04 17:26N 53°35' E 000°24'0 0.1
2016-Feb-04 16:17N 53°35' E 000°24'0 0.0
2016-Feb-04 15:08N 53°35' E 000°24'0 0.0
2016-Feb-04 14:09N 53°35' E 000°24'0 0.0
2016-Feb-04 13:26N 53°35' E 000°24'0 0.0
2016-Feb-04 12:05N 53°35' E 000°24'0 0.0
2016-Feb-04 11:26N 53°35' E 000°24'0 0.0
2016-Feb-04 10:32N 53°35' E 000°24'0 0.0
2016-Feb-04 09:31N 53°35' E 000°25'0 0.1
2016-Feb-04 08:32N 53°35' E 000°25'0 0.0
2016-Feb-04 07:28N 53°36' E 000°24'0 0.0
2016-Feb-04 05:24N 53°36' E 000°24'0 0.0
2016-Feb-04 04:24N 53°36' E 000°24'0 0.1
2016-Feb-04 03:34N 53°35' E 000°25'0 0.0
2016-Feb-04 02:33N 53°35' E 000°25'0 0.0
2016-Feb-04 01:30N 53°35' E 000°25'0 0.0
2016-Feb-04 00:33N 53°35' E 000°25'0 0.0
2016-Feb-03 23:32N 53°35' E 000°25'0 0.0
2016-Feb-03 22:33N 53°35' E 000°25'0 0.0
2016-Feb-03 21:30N 53°35' E 000°25'0 0.0
2016-Feb-03 20:32N 53°35' E 000°25'0 0.1
2016-Feb-03 19:30N 53°35' E 000°24'0 0.1
2016-Feb-03 18:31N 53°35' E 000°24'0 0.0
2016-Feb-03 17:29N 53°35' E 000°24'0 0.1
2016-Feb-03 16:29N 53°35' E 000°25'2 1.9
2016-Feb-03 15:33N 53°35' E 000°27'22 5.3
2016-Feb-03 11:31N 53°25' E 000°60'5 5.2
2016-Feb-03 10:33N 53°23' E 001°07'11 5.6
2016-Feb-03 08:32N 53°13' E 001°18'8 8.0
2016-Feb-03 07:33N 53°07' E 001°25'10 9.7
2016-Feb-03 06:33N 53°01' E 001°38'1110.9
2016-Feb-03 05:33N 52°57' E 001°55'83 9.2
2016-Feb-02 20:31N 52°06' E 003°43'7 7.3
2016-Feb-02 19:33N 52°03' E 003°53'7 7.0
2016-Feb-02 18:33N 51°60' E 004°03'9 8.9
2016-Feb-02 17:33N 51°55' E 004°15'8 7.8
2016-Feb-02 16:33N 51°50' E 004°26'8 7.8
2016-Feb-02 15:33N 51°48' E 004°37'6 6.4
2016-Feb-02 14:33N 51°42' E 004°34'0 0.1
2016-Feb-02 13:29N 51°42' E 004°34'0 0.0
2016-Feb-02 12:32N 51°42' E 004°34'0 0.0
2016-Feb-02 11:29N 51°42' E 004°34'0 0.0
2016-Feb-02 10:32N 51°42' E 004°34'0 0.0
2016-Feb-02 09:32N 51°42' E 004°34'0 0.0
2016-Feb-02 08:32N 51°42' E 004°34'0 0.0
2016-Feb-02 07:32N 51°42' E 004°34'0 0.0
2016-Feb-02 06:29N 51°42' E 004°34'0 0.0
2016-Feb-02 05:32N 51°42' E 004°34'0 0.0
2016-Feb-02 04:29N 51°42' E 004°34'0 0.0
2016-Feb-02 03:32N 51°42' E 004°34'0 0.0
2016-Feb-02 02:32N 51°42' E 004°34'0 0.0
2016-Feb-02 01:32N 51°42' E 004°34'0 0.0
2016-Feb-02 00:32N 51°42' E 004°34'0 0.0
2016-Feb-01 23:26N 51°42' E 004°34'0 0.0
2016-Feb-01 22:32N 51°42' E 004°34'0 0.0
2016-Feb-01 21:32N 51°42' E 004°34'0 0.0
2016-Feb-01 20:23N 51°42' E 004°34'0 0.0
2016-Feb-01 19:32N 51°42' E 004°34'0 0.0
2016-Feb-01 18:32N 51°42' E 004°34'0 0.0
2016-Feb-01 17:32N 51°42' E 004°34'0 0.0
2016-Feb-01 16:32N 51°42' E 004°34'0 0.0
2016-Feb-01 15:29N 51°42' E 004°34'0 0.0
2016-Feb-01 14:32N 51°42' E 004°34'0 0.0
2016-Feb-01 13:32N 51°42' E 004°34'0 0.0
2016-Feb-01 12:32N 51°42' E 004°34'0 0.0
2016-Feb-01 11:32N 51°42' E 004°34'0 0.0
2016-Feb-01 10:29N 51°42' E 004°34'0 0.0
2016-Feb-01 09:32N 51°42' E 004°34'0 0.0
2016-Feb-01 08:32N 51°42' E 004°34'0 0.0
2016-Feb-01 07:32N 51°42' E 004°34'0 0.0
2016-Feb-01 06:32N 51°42' E 004°34'0 0.0
2016-Feb-01 05:32N 51°42' E 004°34'0 0.0
2016-Feb-01 04:32N 51°42' E 004°34'0 0.0
2016-Feb-01 03:32N 51°42' E 004°34'0 0.0
2016-Feb-01 02:32N 51°42' E 004°34'0 0.0
2016-Feb-01 01:32N 51°42' E 004°34'0 0.3
2016-Feb-01 00:33N 51°42' E 004°34'4 4.2
2016-Jan-31 23:33N 51°45' E 004°38'6 6.5
2016-Jan-31 22:33N 51°50' E 004°31'8 8.3
2016-Jan-31 21:33N 51°54' E 004°18'  
Track history (hours):
 
Tides and Currents Weather Stations Pressure Air Temp Water Temp Dewpoint Dewpoint Depression Visibility Wind Speed Wind Dir Waves Ship Positions

M/T Filos

Last reported at 2016-Feb-10 21:32 UTC. Time now 2016-Feb-10 22:11 UTC.
Position N 51°33' E 001°28'.

Length 180 m; draft 7.4 m.

Type: Tanker. MMSI: 224561000.

Date/timePositionNaut miles runAvg speedWind from/ knotsBaromVisibWave heightAir tempDewpointWater temp
2016-Feb-10 21:32N 51°33' E 001°28'0 0.0
2016-Feb-10 20:32N 51°33' E 001°28'0 0.1
2016-Feb-10 19:32N 51°33' E 001°29'0 0.1
2016-Feb-10 18:32N 51°33' E 001°29'0 0.0
2016-Feb-10 17:32N 51°33' E 001°29'0 0.0
2016-Feb-10 16:32N 51°33' E 001°29'0 0.0
2016-Feb-10 15:32N 51°33' E 001°29'0 0.0
2016-Feb-10 14:32N 51°33' E 001°29'0 0.1
2016-Feb-10 13:32N 51°33' E 001°28'6 5.9
2016-Feb-10 12:34N 51°27' E 001°30'5 5.3
2016-Feb-10 11:33N 51°32' E 001°29'0 0.5
2016-Feb-10 10:33N 51°33' E 001°29'0 0.0
2016-Feb-10 09:33N 51°33' E 001°29'0 0.1
2016-Feb-10 08:33N 51°33' E 001°30'0 0.1
2016-Feb-10 07:33N 51°33' E 001°30'0 0.0
2016-Feb-10 06:33N 51°33' E 001°30'0 0.0
2016-Feb-10 05:33N 51°33' E 001°30'0 0.0
2016-Feb-10 04:33N 51°33' E 001°30'0 0.0
2016-Feb-10 03:30N 51°33' E 001°30'0 0.0
2016-Feb-10 02:33N 51°33' E 001°30'0 0.0
2016-Feb-10 01:30N 51°33' E 001°30'0 0.1
2016-Feb-10 00:33N 51°33' E 001°29'0 0.1
2016-Feb-09 23:33N 51°33' E 001°29'0 0.0
2016-Feb-09 22:33N 51°33' E 001°29'0 0.0
2016-Feb-09 21:33N 51°33' E 001°29'0 0.0
2016-Feb-09 20:33N 51°33' E 001°29'0 0.2
2016-Feb-09 19:33N 51°33' E 001°30'0 0.1
2016-Feb-09 18:33N 51°33' E 001°30'2 1.8
2016-Feb-09 17:33N 51°32' E 001°32'8 8.4
2016-Feb-09 16:33N 51°33' E 001°45'8 8.4
2016-Feb-09 15:33N 51°38' E 001°57'51 8.5
2016-Feb-09 09:32N 52°28' E 002°16'2110.9
2016-Feb-09 07:33N 52°49' E 002°07'1010.4
2016-Feb-09 06:33N 52°56' E 001°56'1110.5
2016-Feb-09 05:33N 53°00' E 001°40'9 9.3
2016-Feb-09 04:33N 53°06' E 001°27'8 8.4
2016-Feb-09 03:33N 53°12' E 001°18'13 6.6
2016-Feb-09 01:32N 53°23' E 001°06'6 5.9
2016-Feb-09 00:32N 53°28' E 000°60'39 6.6
2016-Feb-08 18:34N 54°00' E 000°22'9 9.1
2016-Feb-08 17:33N 54°07' E 000°12'10 9.8
2016-Feb-08 16:33N 54°15' E 000°01'1010.1
2016-Feb-08 15:33N 54°22' W 000°11'1010.2
2016-Feb-08 14:33N 54°29' W 000°23'10 9.9
2016-Feb-08 13:32N 54°34' W 000°38'1010.1
2016-Feb-08 12:33N 54°38' W 000°54'9 8.7
2016-Feb-08 11:33N 54°38' W 001°09'1 0.5
2016-Feb-08 08:24N 54°37' W 001°09'0 0.0
2016-Feb-08 03:09N 54°37' W 001°09'0 0.0
2016-Feb-08 02:24N 54°37' W 001°09'0 0.0
2016-Feb-08 01:30N 54°37' W 001°09'0 0.0
2016-Feb-08 00:27N 54°37' W 001°09'0 0.0
2016-Feb-07 21:33N 54°37' W 001°09'0 0.0
2016-Feb-07 20:32N 54°37' W 001°09'0 0.0
2016-Feb-07 19:33N 54°37' W 001°09'0 0.0
2016-Feb-07 18:33N 54°37' W 001°09'5 4.7
2016-Feb-07 17:33N 54°41' W 001°05'6 6.5
2016-Feb-07 16:34N 54°43' W 000°54'0 0.1
2016-Feb-07 15:31N 54°43' W 000°54'0 0.0
2016-Feb-07 14:25N 54°43' W 000°54'0 0.1
2016-Feb-07 13:31N 54°43' W 000°54'0 0.1
2016-Feb-07 12:31N 54°43' W 000°54'0 0.0
2016-Feb-07 11:31N 54°43' W 000°54'0 0.1
2016-Feb-07 10:31N 54°43' W 000°54'0 0.0
2016-Feb-07 09:31N 54°43' W 000°54'0 0.0
2016-Feb-07 08:31N 54°43' W 000°54'0 0.0
2016-Feb-07 07:31N 54°43' W 000°54'0 0.0
2016-Feb-07 06:31N 54°43' W 000°54'0 0.0
2016-Feb-07 05:31N 54°43' W 000°54'0 0.0
2016-Feb-07 04:31N 54°43' W 000°54'0 0.1
2016-Feb-07 03:28N 54°43' W 000°54'0 0.0
2016-Feb-07 02:31N 54°43' W 000°54'0 0.0
2016-Feb-07 01:31N 54°43' W 000°54'0 0.1
2016-Feb-07 00:31N 54°43' W 000°54'0 0.1
2016-Feb-06 23:31N 54°43' W 000°54'0 0.1
2016-Feb-06 22:31N 54°43' W 000°54'0 0.0
2016-Feb-06 21:31N 54°43' W 000°54'0 0.0
2016-Feb-06 20:31N 54°43' W 000°54'0 0.1
2016-Feb-06 19:31N 54°43' W 000°54'0 0.0
2016-Feb-06 18:31N 54°43' W 000°54'0 0.1
2016-Feb-06 17:31N 54°43' W 000°54'0 0.1
2016-Feb-06 16:31N 54°43' W 000°54'0 0.0
2016-Feb-06 15:31N 54°43' W 000°54'0 0.1
2016-Feb-06 14:31N 54°43' W 000°55'0 0.0
2016-Feb-06 13:31N 54°43' W 000°54'0 0.0
2016-Feb-06 12:31N 54°43' W 000°54'0 0.0
2016-Feb-06 11:31N 54°43' W 000°54'0 0.0
2016-Feb-06 10:31N 54°43' W 000°54'0 0.0
2016-Feb-06 09:31N 54°43' W 000°54'0 0.0
2016-Feb-06 08:31N 54°43' W 000°54'5 4.9
2016-Feb-06 07:33N 54°42' W 000°47'10 9.9
2016-Feb-06 06:33N 54°38' W 000°30'1111.0
2016-Feb-06 05:33N 54°31' W 000°17'1010.3
2016-Feb-06 04:33N 54°24' W 000°04'10 9.5
2016-Feb-06 03:33N 54°17' E 000°08'9 8.6
2016-Feb-06 02:33N 54°09' E 000°14'9 8.9
2016-Feb-06 01:33N 54°00' E 000°17'10 9.1
2016-Feb-06 00:30N 53°51' E 000°20'10 9.8
2016-Feb-05 23:31N 53°42' E 000°25'9 9.6
2016-Feb-05 22:33N 53°34' E 000°16'9 8.6
2016-Feb-05 21:33N 53°35' E 000°02'9 8.7
2016-Feb-05 20:33N 53°38' W 000°11'0 0.0
2016-Feb-05 19:31N 53°38' W 000°11'0 0.0
2016-Feb-05 18:31N 53°38' W 000°11'0 0.0
2016-Feb-05 17:31N 53°38' W 000°11'0 0.0
2016-Feb-05 16:25N 53°38' W 000°11'0 0.0
2016-Feb-05 15:28N 53°38' W 000°11'0 0.0
2016-Feb-05 14:28N 53°38' W 000°11'0 0.0
2016-Feb-05 13:28N 53°38' W 000°11'0 0.0
2016-Feb-05 12:31N 53°38' W 000°11'0 0.0
2016-Feb-05 11:31N 53°38' W 000°11'0 0.0
2016-Feb-05 10:31N 53°38' W 000°11'0 0.0
2016-Feb-05 09:28N 53°38' W 000°11'0 0.0
2016-Feb-05 07:31N 53°38' W 000°11'0 0.0
2016-Feb-05 06:31N 53°38' W 000°11'0 0.0
2016-Feb-05 05:28N 53°38' W 000°11'0 0.0
2016-Feb-05 04:28N 53°38' W 000°11'0 0.0
2016-Feb-05 03:31N 53°38' W 000°11'0 0.0
2016-Feb-05 02:31N 53°38' W 000°11'0 0.0
2016-Feb-05 01:31N 53°38' W 000°11'0 0.0
2016-Feb-05 00:31N 53°38' W 000°11'0 0.0
2016-Feb-04 23:31N 53°38' W 000°11'0 0.0
2016-Feb-04 22:31N 53°38' W 000°11'0 0.0
2016-Feb-04 21:33N 53°38' W 000°11'5 4.8
2016-Feb-04 20:33N 53°37' W 000°04'9 9.1
2016-Feb-04 19:34N 53°33' E 000°10'8 8.3
2016-Feb-04 18:33N 53°35' E 000°24'1 0.7
2016-Feb-04 17:26N 53°35' E 000°24'0 0.1
2016-Feb-04 16:17N 53°35' E 000°24'0 0.0
2016-Feb-04 15:08N 53°35' E 000°24'0 0.0
2016-Feb-04 14:09N 53°35' E 000°24'0 0.0
2016-Feb-04 13:26N 53°35' E 000°24'0 0.0
2016-Feb-04 12:05N 53°35' E 000°24'0 0.0
2016-Feb-04 11:26N 53°35' E 000°24'0 0.0
2016-Feb-04 10:32N 53°35' E 000°24'0 0.0
2016-Feb-04 09:31N 53°35' E 000°25'0 0.1
2016-Feb-04 08:32N 53°35' E 000°25'0 0.0
2016-Feb-04 07:28N 53°36' E 000°24'0 0.0
2016-Feb-04 05:24N 53°36' E 000°24'0 0.0
2016-Feb-04 04:24N 53°36' E 000°24'0 0.1
2016-Feb-04 03:34N 53°35' E 000°25'0 0.0
2016-Feb-04 02:33N 53°35' E 000°25'0 0.0
2016-Feb-04 01:30N 53°35' E 000°25'0 0.0
2016-Feb-04 00:33N 53°35' E 000°25'0 0.0
2016-Feb-03 23:32N 53°35' E 000°25'0 0.0
2016-Feb-03 22:33N 53°35' E 000°25'0 0.0
2016-Feb-03 21:30N 53°35' E 000°25'0 0.0
2016-Feb-03 20:32N 53°35' E 000°25'0 0.1
2016-Feb-03 19:30N 53°35' E 000°24'0 0.1
2016-Feb-03 18:31N 53°35' E 000°24'0 0.0
2016-Feb-03 17:29N 53°35' E 000°24'0 0.1
2016-Feb-03 16:29N 53°35' E 000°25'2 1.9
2016-Feb-03 15:33N 53°35' E 000°27'22 5.3
2016-Feb-03 11:31N 53°25' E 000°60'5 5.2
2016-Feb-03 10:33N 53°23' E 001°07'11 5.6
2016-Feb-03 08:32N 53°13' E 001°18'8 8.0
2016-Feb-03 07:33N 53°07' E 001°25'10 9.7
2016-Feb-03 06:33N 53°01' E 001°38'1110.9
2016-Feb-03 05:33N 52°57' E 001°55'83 9.2
2016-Feb-02 20:31N 52°06' E 003°43'7 7.3
2016-Feb-02 19:33N 52°03' E 003°53'7 7.0
2016-Feb-02 18:33N 51°60' E 004°03'9 8.9
2016-Feb-02 17:33N 51°55' E 004°15'8 7.8
2016-Feb-02 16:33N 51°50' E 004°26'8 7.8
2016-Feb-02 15:33N 51°48' E 004°37'6 6.4
2016-Feb-02 14:33N 51°42' E 004°34'0 0.1
2016-Feb-02 13:29N 51°42' E 004°34'0 0.0
2016-Feb-02 12:32N 51°42' E 004°34'0 0.0
2016-Feb-02 11:29N 51°42' E 004°34'0 0.0
2016-Feb-02 10:32N 51°42' E 004°34'0 0.0
2016-Feb-02 09:32N 51°42' E 004°34'0 0.0
2016-Feb-02 08:32N 51°42' E 004°34'0 0.0
2016-Feb-02 07:32N 51°42' E 004°34'0 0.0
2016-Feb-02 06:29N 51°42' E 004°34'0 0.0
2016-Feb-02 05:32N 51°42' E 004°34'0 0.0
2016-Feb-02 04:29N 51°42' E 004°34'0 0.0
2016-Feb-02 03:32N 51°42' E 004°34'0 0.0
2016-Feb-02 02:32N 51°42' E 004°34'0 0.0
2016-Feb-02 01:32N 51°42' E 004°34'0 0.0
2016-Feb-02 00:32N 51°42' E 004°34'0 0.0
2016-Feb-01 23:26N 51°42' E 004°34'0 0.0
2016-Feb-01 22:32N 51°42' E 004°34'0 0.0
2016-Feb-01 21:32N 51°42' E 004°34'0 0.0
2016-Feb-01 20:23N 51°42' E 004°34'0 0.0
2016-Feb-01 19:32N 51°42' E 004°34'0 0.0
2016-Feb-01 18:32N 51°42' E 004°34'0 0.0
2016-Feb-01 17:32N 51°42' E 004°34'0 0.0
2016-Feb-01 16:32N 51°42' E 004°34'0 0.0
2016-Feb-01 15:29N 51°42' E 004°34'0 0.0
2016-Feb-01 14:32N 51°42' E 004°34'0 0.0
2016-Feb-01 13:32N 51°42' E 004°34'0 0.0
2016-Feb-01 12:32N 51°42' E 004°34'0 0.0
2016-Feb-01 11:32N 51°42' E 004°34'0 0.0
2016-Feb-01 10:29N 51°42' E 004°34'0 0.0
2016-Feb-01 09:32N 51°42' E 004°34'0 0.0
2016-Feb-01 08:32N 51°42' E 004°34'0 0.0
2016-Feb-01 07:32N 51°42' E 004°34'0 0.0
2016-Feb-01 06:32N 51°42' E 004°34'0 0.0
2016-Feb-01 05:32N 51°42' E 004°34'0 0.0
2016-Feb-01 04:32N 51°42' E 004°34'0 0.0
2016-Feb-01 03:32N 51°42' E 004°34'0 0.0
2016-Feb-01 02:32N 51°42' E 004°34'0 0.0
2016-Feb-01 01:32N 51°42' E 004°34'0 0.3
2016-Feb-01 00:33N 51°42' E 004°34'4 4.2
2016-Jan-31 23:33N 51°45' E 004°38'6 6.5
2016-Jan-31 22:33N 51°50' E 004°31'8 8.3
2016-Jan-31 21:33N 51°54' E 004°18'  

Dump ship's entire track history